sensor_id;sensor_type;location;lat;lon;timestamp;P1;durP1;ratioP1;P2;durP2;ratioP2
18653;SDS011;9456;47.824;16.228;2024-02-04T00:01:49;1.50;;;1.40;;
18653;SDS011;9456;47.824;16.228;2024-02-04T00:04:17;1.60;;;1.50;;
18653;SDS011;9456;47.824;16.228;2024-02-04T00:06:45;1.70;;;1.60;;
18653;SDS011;9456;47.824;16.228;2024-02-04T00:09:13;1.70;;;1.60;;
18653;SDS011;9456;47.824;16.228;2024-02-04T00:11:41;1.80;;;1.70;;
18653;SDS011;9456;47.824;16.228;2024-02-04T00:14:09;2.33;;;1.87;;
18653;SDS011;9456;47.824;16.228;2024-02-04T00:16:37;1.70;;;1.60;;
18653;SDS011;9456;47.824;16.228;2024-02-04T00:19:05;1.70;;;1.60;;
18653;SDS011;9456;47.824;16.228;2024-02-04T00:21:33;2.70;;;1.70;;
18653;SDS011;9456;47.824;16.228;2024-02-04T00:24:09;1.83;;;1.73;;
18653;SDS011;9456;47.824;16.228;2024-02-04T00:26:37;2.70;;;1.90;;
18653;SDS011;9456;47.824;16.228;2024-02-04T00:29:05;1.87;;;1.77;;
18653;SDS011;9456;47.824;16.228;2024-02-04T00:31:33;1.50;;;1.50;;
18653;SDS011;9456;47.824;16.228;2024-02-04T00:34:01;1.57;;;1.53;;
18653;SDS011;9456;47.824;16.228;2024-02-04T00:36:29;1.70;;;1.60;;
18653;SDS011;9456;47.824;16.228;2024-02-04T00:38:57;1.50;;;1.40;;
18653;SDS011;9456;47.824;16.228;2024-02-04T00:41:25;1.47;;;1.40;;
18653;SDS011;9456;47.824;16.228;2024-02-04T00:43:54;1.20;;;1.20;;
18653;SDS011;9456;47.824;16.228;2024-02-04T00:46:22;1.30;;;1.30;;
18653;SDS011;9456;47.824;16.228;2024-02-04T00:48:50;1.33;;;1.30;;
18653;SDS011;9456;47.824;16.228;2024-02-04T00:51:18;1.40;;;1.30;;
18653;SDS011;9456;47.824;16.228;2024-02-04T00:53:46;1.40;;;1.30;;
18653;SDS011;9456;47.824;16.228;2024-02-04T00:56:14;1.47;;;1.47;;
18653;SDS011;9456;47.824;16.228;2024-02-04T00:58:42;1.37;;;1.27;;
18653;SDS011;9456;47.824;16.228;2024-02-04T01:01:10;1.10;;;1.10;;
18653;SDS011;9456;47.824;16.228;2024-02-04T01:03:38;1.23;;;1.23;;
18653;SDS011;9456;47.824;16.228;2024-02-04T01:06:06;1.30;;;1.30;;
18653;SDS011;9456;47.824;16.228;2024-02-04T01:08:34;1.20;;;1.10;;
18653;SDS011;9456;47.824;16.228;2024-02-04T01:11:02;0.90;;;0.90;;
18653;SDS011;9456;47.824;16.228;2024-02-04T01:13:30;1.07;;;1.07;;
18653;SDS011;9456;47.824;16.228;2024-02-04T01:15:58;0.80;;;0.80;;
18653;SDS011;9456;47.824;16.228;2024-02-04T01:18:26;0.90;;;0.83;;
18653;SDS011;9456;47.824;16.228;2024-02-04T01:20:55;0.50;;;0.50;;
18653;SDS011;9456;47.824;16.228;2024-02-04T01:23:23;0.60;;;0.60;;
18653;SDS011;9456;47.824;16.228;2024-02-04T01:25:51;0.60;;;0.60;;
18653;SDS011;9456;47.824;16.228;2024-02-04T01:28:19;0.50;;;0.50;;
18653;SDS011;9456;47.824;16.228;2024-02-04T01:30:48;0.63;;;0.63;;
18653;SDS011;9456;47.824;16.228;2024-02-04T01:33:16;0.70;;;0.70;;
18653;SDS011;9456;47.824;16.228;2024-02-04T01:35:44;0.60;;;0.60;;
18653;SDS011;9456;47.824;16.228;2024-02-04T01:38:12;0.60;;;0.60;;
18653;SDS011;9456;47.824;16.228;2024-02-04T01:40:40;0.40;;;0.40;;
18653;SDS011;9456;47.824;16.228;2024-02-04T01:43:08;0.60;;;0.60;;
18653;SDS011;9456;47.824;16.228;2024-02-04T01:45:36;0.47;;;0.47;;
18653;SDS011;9456;47.824;16.228;2024-02-04T01:48:05;0.50;;;0.50;;
18653;SDS011;9456;47.824;16.228;2024-02-04T01:50:33;0.60;;;0.60;;
18653;SDS011;9456;47.824;16.228;2024-02-04T01:53:01;0.67;;;0.67;;
18653;SDS011;9456;47.824;16.228;2024-02-04T01:55:29;0.83;;;0.70;;
18653;SDS011;9456;47.824;16.228;2024-02-04T01:57:57;0.50;;;0.50;;
18653;SDS011;9456;47.824;16.228;2024-02-04T02:00:25;0.50;;;0.50;;
18653;SDS011;9456;47.824;16.228;2024-02-04T02:02:53;0.50;;;0.50;;
18653;SDS011;9456;47.824;16.228;2024-02-04T02:05:22;0.67;;;0.67;;
18653;SDS011;9456;47.824;16.228;2024-02-04T02:07:50;0.50;;;0.50;;
18653;SDS011;9456;47.824;16.228;2024-02-04T02:10:18;0.60;;;0.60;;
18653;SDS011;9456;47.824;16.228;2024-02-04T02:12:47;0.30;;;0.30;;
18653;SDS011;9456;47.824;16.228;2024-02-04T02:15:15;0.50;;;0.50;;
18653;SDS011;9456;47.824;16.228;2024-02-04T02:17:44;0.50;;;0.50;;
18653;SDS011;9456;47.824;16.228;2024-02-04T02:20:12;0.40;;;0.40;;
18653;SDS011;9456;47.824;16.228;2024-02-04T02:22:48;0.70;;;0.70;;
18653;SDS011;9456;47.824;16.228;2024-02-04T02:25:08;0.50;;;0.50;;
18653;SDS011;9456;47.824;16.228;2024-02-04T02:27:46;0.60;;;0.60;;
18653;SDS011;9456;47.824;16.228;2024-02-04T02:30:15;0.50;;;0.50;;
18653;SDS011;9456;47.824;16.228;2024-02-04T02:32:43;0.40;;;0.40;;
18653;SDS011;9456;47.824;16.228;2024-02-04T02:35:11;0.30;;;0.30;;
18653;SDS011;9456;47.824;16.228;2024-02-04T02:37:43;0.50;;;0.50;;
18653;SDS011;9456;47.824;16.228;2024-02-04T02:40:12;0.30;;;0.30;;
18653;SDS011;9456;47.824;16.228;2024-02-04T02:42:38;0.40;;;0.40;;
18653;SDS011;9456;47.824;16.228;2024-02-04T02:45:07;0.50;;;0.50;;
18653;SDS011;9456;47.824;16.228;2024-02-04T02:47:35;0.40;;;0.40;;
18653;SDS011;9456;47.824;16.228;2024-02-04T02:53:07;0.50;;;0.50;;
18653;SDS011;9456;47.824;16.228;2024-02-04T02:55:35;0.60;;;0.50;;
18653;SDS011;9456;47.824;16.228;2024-02-04T02:58:03;0.23;;;0.23;;
18653;SDS011;9456;47.824;16.228;2024-02-04T03:00:32;0.43;;;0.43;;
18653;SDS011;9456;47.824;16.228;2024-02-04T03:03:00;0.40;;;0.40;;
18653;SDS011;9456;47.824;16.228;2024-02-04T03:05:28;0.40;;;0.40;;
18653;SDS011;9456;47.824;16.228;2024-02-04T03:07:56;0.40;;;0.40;;
18653;SDS011;9456;47.824;16.228;2024-02-04T03:10:24;0.30;;;0.30;;
18653;SDS011;9456;47.824;16.228;2024-02-04T03:12:52;0.30;;;0.30;;
18653;SDS011;9456;47.824;16.228;2024-02-04T03:15:20;0.30;;;0.30;;
18653;SDS011;9456;47.824;16.228;2024-02-04T03:17:48;0.23;;;0.23;;
18653;SDS011;9456;47.824;16.228;2024-02-04T03:20:17;0.37;;;0.30;;
18653;SDS011;9456;47.824;16.228;2024-02-04T03:22:47;0.30;;;0.30;;
18653;SDS011;9456;47.824;16.228;2024-02-04T03:25:14;0.50;;;0.50;;
18653;SDS011;9456;47.824;16.228;2024-02-04T03:27:42;0.27;;;0.27;;
18653;SDS011;9456;47.824;16.228;2024-02-04T03:30:10;0.30;;;0.30;;
18653;SDS011;9456;47.824;16.228;2024-02-04T03:32:38;0.30;;;0.30;;
18653;SDS011;9456;47.824;16.228;2024-02-04T03:35:07;0.20;;;0.20;;
18653;SDS011;9456;47.824;16.228;2024-02-04T03:37:35;0.30;;;0.30;;
18653;SDS011;9456;47.824;16.228;2024-02-04T03:40:04;0.73;;;0.30;;
18653;SDS011;9456;47.824;16.228;2024-02-04T03:42:32;2.90;;;0.40;;
18653;SDS011;9456;47.824;16.228;2024-02-04T03:45:00;0.20;;;0.20;;
18653;SDS011;9456;47.824;16.228;2024-02-04T03:47:29;0.30;;;0.30;;
18653;SDS011;9456;47.824;16.228;2024-02-04T03:49:57;0.33;;;0.33;;
18653;SDS011;9456;47.824;16.228;2024-02-04T03:52:25;0.20;;;0.20;;
18653;SDS011;9456;47.824;16.228;2024-02-04T03:54:53;0.23;;;0.23;;
18653;SDS011;9456;47.824;16.228;2024-02-04T03:57:21;0.60;;;0.40;;
18653;SDS011;9456;47.824;16.228;2024-02-04T03:59:49;0.20;;;0.20;;
18653;SDS011;9456;47.824;16.228;2024-02-04T04:02:17;0.30;;;0.30;;
18653;SDS011;9456;47.824;16.228;2024-02-04T04:04:45;0.30;;;0.30;;
18653;SDS011;9456;47.824;16.228;2024-02-04T04:07:14;0.13;;;0.13;;
18653;SDS011;9456;47.824;16.228;2024-02-04T04:09:42;0.23;;;0.23;;
18653;SDS011;9456;47.824;16.228;2024-02-04T04:12:10;0.30;;;0.30;;
18653;SDS011;9456;47.824;16.228;2024-02-04T04:14:38;0.37;;;0.37;;
18653;SDS011;9456;47.824;16.228;2024-02-04T04:17:07;0.27;;;0.27;;
18653;SDS011;9456;47.824;16.228;2024-02-04T04:19:35;0.20;;;0.20;;
18653;SDS011;9456;47.824;16.228;2024-02-04T04:22:03;0.27;;;0.27;;
18653;SDS011;9456;47.824;16.228;2024-02-04T04:24:31;0.10;;;0.10;;
18653;SDS011;9456;47.824;16.228;2024-02-04T04:26:59;0.40;;;0.40;;
18653;SDS011;9456;47.824;16.228;2024-02-04T04:29:27;0.20;;;0.20;;
18653;SDS011;9456;47.824;16.228;2024-02-04T04:31:55;0.20;;;0.20;;
18653;SDS011;9456;47.824;16.228;2024-02-04T04:34:23;0.40;;;0.40;;
18653;SDS011;9456;47.824;16.228;2024-02-04T04:36:52;0.27;;;0.23;;
18653;SDS011;9456;47.824;16.228;2024-02-04T04:39:20;0.30;;;0.30;;
18653;SDS011;9456;47.824;16.228;2024-02-04T04:41:48;0.77;;;0.77;;
18653;SDS011;9456;47.824;16.228;2024-02-04T04:44:16;1.03;;;0.93;;
18653;SDS011;9456;47.824;16.228;2024-02-04T04:46:44;0.50;;;0.50;;
18653;SDS011;9456;47.824;16.228;2024-02-04T04:49:12;0.50;;;0.50;;
18653;SDS011;9456;47.824;16.228;2024-02-04T04:51:43;0.30;;;0.30;;
18653;SDS011;9456;47.824;16.228;2024-02-04T04:54:08;0.27;;;0.27;;
18653;SDS011;9456;47.824;16.228;2024-02-04T04:56:39;0.53;;;0.30;;
18653;SDS011;9456;47.824;16.228;2024-02-04T04:59:07;0.20;;;0.20;;
18653;SDS011;9456;47.824;16.228;2024-02-04T05:01:35;0.10;;;0.10;;
18653;SDS011;9456;47.824;16.228;2024-02-04T05:04:03;0.60;;;0.60;;
18653;SDS011;9456;47.824;16.228;2024-02-04T05:06:31;0.20;;;0.20;;
18653;SDS011;9456;47.824;16.228;2024-02-04T05:08:59;0.10;;;0.10;;
18653;SDS011;9456;47.824;16.228;2024-02-04T05:11:28;0.20;;;0.20;;
18653;SDS011;9456;47.824;16.228;2024-02-04T05:13:56;0.20;;;0.20;;
18653;SDS011;9456;47.824;16.228;2024-02-04T05:16:24;0.20;;;0.20;;
18653;SDS011;9456;47.824;16.228;2024-02-04T05:18:52;0.30;;;0.30;;
18653;SDS011;9456;47.824;16.228;2024-02-04T05:21:20;0.10;;;0.10;;
18653;SDS011;9456;47.824;16.228;2024-02-04T05:23:48;0.30;;;0.30;;
18653;SDS011;9456;47.824;16.228;2024-02-04T05:26:18;0.20;;;0.20;;
18653;SDS011;9456;47.824;16.228;2024-02-04T05:28:46;0.30;;;0.30;;
18653;SDS011;9456;47.824;16.228;2024-02-04T05:31:14;0.13;;;0.13;;
18653;SDS011;9456;47.824;16.228;2024-02-04T05:33:52;0.20;;;0.20;;
18653;SDS011;9456;47.824;16.228;2024-02-04T05:36:21;0.40;;;0.30;;
18653;SDS011;9456;47.824;16.228;2024-02-04T05:38:49;0.20;;;0.20;;
18653;SDS011;9456;47.824;16.228;2024-02-04T05:41:17;0.10;;;0.10;;
18653;SDS011;9456;47.824;16.228;2024-02-04T05:43:45;0.20;;;0.20;;
18653;SDS011;9456;47.824;16.228;2024-02-04T05:46:14;0.20;;;0.20;;
18653;SDS011;9456;47.824;16.228;2024-02-04T05:48:42;0.10;;;0.10;;
18653;SDS011;9456;47.824;16.228;2024-02-04T05:51:10;0.20;;;0.20;;
18653;SDS011;9456;47.824;16.228;2024-02-04T05:53:39;0.50;;;0.50;;
18653;SDS011;9456;47.824;16.228;2024-02-04T05:56:07;0.30;;;0.30;;
18653;SDS011;9456;47.824;16.228;2024-02-04T05:58:35;0.20;;;0.20;;
18653;SDS011;9456;47.824;16.228;2024-02-04T06:01:03;0.10;;;0.10;;
18653;SDS011;9456;47.824;16.228;2024-02-04T06:03:31;0.20;;;0.20;;
18653;SDS011;9456;47.824;16.228;2024-02-04T06:05:59;0.60;;;0.60;;
18653;SDS011;9456;47.824;16.228;2024-02-04T06:08:28;0.50;;;0.50;;
18653;SDS011;9456;47.824;16.228;2024-02-04T06:10:56;0.20;;;0.20;;
18653;SDS011;9456;47.824;16.228;2024-02-04T06:13:24;0.17;;;0.10;;
18653;SDS011;9456;47.824;16.228;2024-02-04T06:15:52;0.10;;;0.10;;
18653;SDS011;9456;47.824;16.228;2024-02-04T06:18:20;0.27;;;0.27;;
18653;SDS011;9456;47.824;16.228;2024-02-04T06:20:48;0.20;;;0.20;;
18653;SDS011;9456;47.824;16.228;2024-02-04T06:23:16;0.20;;;0.20;;
18653;SDS011;9456;47.824;16.228;2024-02-04T06:25:44;0.20;;;0.20;;
18653;SDS011;9456;47.824;16.228;2024-02-04T06:28:12;0.17;;;0.17;;
18653;SDS011;9456;47.824;16.228;2024-02-04T06:30:40;0.20;;;0.20;;
18653;SDS011;9456;47.824;16.228;2024-02-04T06:33:08;0.27;;;0.20;;
18653;SDS011;9456;47.824;16.228;2024-02-04T06:35:38;0.10;;;0.10;;
18653;SDS011;9456;47.824;16.228;2024-02-04T06:38:06;0.30;;;0.30;;
18653;SDS011;9456;47.824;16.228;2024-02-04T06:40:33;0.10;;;0.10;;
18653;SDS011;9456;47.824;16.228;2024-02-04T06:43:01;0.20;;;0.20;;
18653;SDS011;9456;47.824;16.228;2024-02-04T06:45:29;0.50;;;0.50;;
18653;SDS011;9456;47.824;16.228;2024-02-04T06:47:57;0.30;;;0.30;;
18653;SDS011;9456;47.824;16.228;2024-02-04T06:50:25;0.60;;;0.30;;
18653;SDS011;9456;47.824;16.228;2024-02-04T06:52:53;0.20;;;0.20;;
18653;SDS011;9456;47.824;16.228;2024-02-04T06:55:21;0.23;;;0.23;;
18653;SDS011;9456;47.824;16.228;2024-02-04T06:57:49;0.10;;;0.10;;
18653;SDS011;9456;47.824;16.228;2024-02-04T07:00:19;0.30;;;0.30;;
18653;SDS011;9456;47.824;16.228;2024-02-04T07:02:48;0.10;;;0.10;;
18653;SDS011;9456;47.824;16.228;2024-02-04T07:05:16;0.10;;;0.10;;
18653;SDS011;9456;47.824;16.228;2024-02-04T07:07:44;0.20;;;0.20;;
18653;SDS011;9456;47.824;16.228;2024-02-04T07:10:12;0.27;;;0.27;;
18653;SDS011;9456;47.824;16.228;2024-02-04T07:12:40;0.17;;;0.17;;
18653;SDS011;9456;47.824;16.228;2024-02-04T07:15:08;0.30;;;0.30;;
18653;SDS011;9456;47.824;16.228;2024-02-04T07:17:36;0.30;;;0.30;;
18653;SDS011;9456;47.824;16.228;2024-02-04T07:20:05;0.30;;;0.30;;
18653;SDS011;9456;47.824;16.228;2024-02-04T07:22:33;0.20;;;0.20;;
18653;SDS011;9456;47.824;16.228;2024-02-04T07:25:02;0.20;;;0.20;;
18653;SDS011;9456;47.824;16.228;2024-02-04T07:27:31;0.30;;;0.30;;
18653;SDS011;9456;47.824;16.228;2024-02-04T07:29:59;0.20;;;0.20;;
18653;SDS011;9456;47.824;16.228;2024-02-04T07:32:27;1.03;;;1.03;;
18653;SDS011;9456;47.824;16.228;2024-02-04T07:34:55;0.40;;;0.40;;
18653;SDS011;9456;47.824;16.228;2024-02-04T07:37:23;0.30;;;0.00;;
18653;SDS011;9456;47.824;16.228;2024-02-04T07:39:51;0.10;;;0.10;;
18653;SDS011;9456;47.824;16.228;2024-02-04T07:42:19;0.20;;;0.20;;
18653;SDS011;9456;47.824;16.228;2024-02-04T07:44:47;0.87;;;0.13;;
18653;SDS011;9456;47.824;16.228;2024-02-04T07:47:16;0.10;;;0.10;;
18653;SDS011;9456;47.824;16.228;2024-02-04T07:49:44;0.20;;;0.20;;
18653;SDS011;9456;47.824;16.228;2024-02-04T07:52:11;0.50;;;0.40;;
18653;SDS011;9456;47.824;16.228;2024-02-04T07:54:40;0.20;;;0.20;;
18653;SDS011;9456;47.824;16.228;2024-02-04T07:57:08;0.70;;;0.70;;
18653;SDS011;9456;47.824;16.228;2024-02-04T07:59:36;0.30;;;0.30;;
18653;SDS011;9456;47.824;16.228;2024-02-04T08:02:04;0.67;;;0.67;;
18653;SDS011;9456;47.824;16.228;2024-02-04T08:04:32;0.40;;;0.40;;
18653;SDS011;9456;47.824;16.228;2024-02-04T08:07:00;0.20;;;0.20;;
18653;SDS011;9456;47.824;16.228;2024-02-04T08:09:28;0.27;;;0.27;;
18653;SDS011;9456;47.824;16.228;2024-02-04T08:11:56;0.20;;;0.20;;
18653;SDS011;9456;47.824;16.228;2024-02-04T08:14:24;0.20;;;0.20;;
18653;SDS011;9456;47.824;16.228;2024-02-04T08:16:52;0.20;;;0.20;;
18653;SDS011;9456;47.824;16.228;2024-02-04T08:19:20;0.20;;;0.20;;
18653;SDS011;9456;47.824;16.228;2024-02-04T08:21:48;1.27;;;0.20;;
18653;SDS011;9456;47.824;16.228;2024-02-04T08:24:16;0.10;;;0.10;;
18653;SDS011;9456;47.824;16.228;2024-02-04T08:26:44;0.20;;;0.20;;
18653;SDS011;9456;47.824;16.228;2024-02-04T08:29:12;0.30;;;0.30;;
18653;SDS011;9456;47.824;16.228;2024-02-04T08:31:40;0.10;;;0.10;;
18653;SDS011;9456;47.824;16.228;2024-02-04T08:34:08;0.20;;;0.20;;
18653;SDS011;9456;47.824;16.228;2024-02-04T08:36:36;0.50;;;0.50;;
18653;SDS011;9456;47.824;16.228;2024-02-04T08:39:04;0.10;;;0.10;;
18653;SDS011;9456;47.824;16.228;2024-02-04T08:41:32;0.10;;;0.10;;
18653;SDS011;9456;47.824;16.228;2024-02-04T08:44:00;0.20;;;0.20;;
18653;SDS011;9456;47.824;16.228;2024-02-04T08:46:28;0.10;;;0.10;;
18653;SDS011;9456;47.824;16.228;2024-02-04T08:48:56;0.10;;;0.10;;
18653;SDS011;9456;47.824;16.228;2024-02-04T08:51:24;0.10;;;0.10;;
18653;SDS011;9456;47.824;16.228;2024-02-04T08:53:53;0.10;;;0.10;;
18653;SDS011;9456;47.824;16.228;2024-02-04T08:56:21;0.10;;;0.10;;
18653;SDS011;9456;47.824;16.228;2024-02-04T08:58:49;0.10;;;0.10;;
18653;SDS011;9456;47.824;16.228;2024-02-04T09:01:17;0.13;;;0.13;;
18653;SDS011;9456;47.824;16.228;2024-02-04T09:03:45;0.20;;;0.20;;
18653;SDS011;9456;47.824;16.228;2024-02-04T09:06:13;0.10;;;0.10;;
18653;SDS011;9456;47.824;16.228;2024-02-04T09:08:41;0.10;;;0.10;;
18653;SDS011;9456;47.824;16.228;2024-02-04T09:11:09;0.10;;;0.10;;
18653;SDS011;9456;47.824;16.228;2024-02-04T09:13:37;0.40;;;0.40;;
18653;SDS011;9456;47.824;16.228;2024-02-04T09:16:05;0.20;;;0.20;;
18653;SDS011;9456;47.824;16.228;2024-02-04T09:18:33;0.20;;;0.20;;
18653;SDS011;9456;47.824;16.228;2024-02-04T09:21:01;0.20;;;0.20;;
18653;SDS011;9456;47.824;16.228;2024-02-04T09:23:32;0.03;;;0.03;;
18653;SDS011;9456;47.824;16.228;2024-02-04T09:26:00;0.20;;;0.20;;
18653;SDS011;9456;47.824;16.228;2024-02-04T09:28:28;1.50;;;0.23;;
18653;SDS011;9456;47.824;16.228;2024-02-04T09:30:56;0.40;;;0.40;;
18653;SDS011;9456;47.824;16.228;2024-02-04T09:33:24;0.40;;;0.20;;
18653;SDS011;9456;47.824;16.228;2024-02-04T09:35:52;0.23;;;0.23;;
18653;SDS011;9456;47.824;16.228;2024-02-04T09:38:20;2.07;;;0.20;;
18653;SDS011;9456;47.824;16.228;2024-02-04T09:40:48;0.20;;;0.20;;
18653;SDS011;9456;47.824;16.228;2024-02-04T09:43:16;0.20;;;0.20;;
18653;SDS011;9456;47.824;16.228;2024-02-04T09:45:44;0.20;;;0.20;;
18653;SDS011;9456;47.824;16.228;2024-02-04T09:48:12;0.10;;;0.10;;
18653;SDS011;9456;47.824;16.228;2024-02-04T09:50:42;0.20;;;0.20;;
18653;SDS011;9456;47.824;16.228;2024-02-04T09:53:10;0.20;;;0.20;;
18653;SDS011;9456;47.824;16.228;2024-02-04T09:55:38;0.10;;;0.10;;
18653;SDS011;9456;47.824;16.228;2024-02-04T09:58:06;0.20;;;0.20;;
18653;SDS011;9456;47.824;16.228;2024-02-04T10:00:34;0.20;;;0.20;;
18653;SDS011;9456;47.824;16.228;2024-02-04T10:03:02;0.10;;;0.10;;
18653;SDS011;9456;47.824;16.228;2024-02-04T10:05:30;0.23;;;0.23;;
18653;SDS011;9456;47.824;16.228;2024-02-04T10:07:59;0.17;;;0.17;;
18653;SDS011;9456;47.824;16.228;2024-02-04T10:10:27;0.23;;;0.23;;
18653;SDS011;9456;47.824;16.228;2024-02-04T10:12:55;1.27;;;0.30;;
18653;SDS011;9456;47.824;16.228;2024-02-04T10:15:23;0.10;;;0.10;;
18653;SDS011;9456;47.824;16.228;2024-02-04T10:17:51;0.10;;;0.10;;
18653;SDS011;9456;47.824;16.228;2024-02-04T10:20:20;0.10;;;0.10;;
18653;SDS011;9456;47.824;16.228;2024-02-04T10:22:48;0.10;;;0.10;;
18653;SDS011;9456;47.824;16.228;2024-02-04T10:25:16;0.10;;;0.10;;
18653;SDS011;9456;47.824;16.228;2024-02-04T10:27:44;0.20;;;0.20;;
18653;SDS011;9456;47.824;16.228;2024-02-04T10:30:13;0.10;;;0.10;;
18653;SDS011;9456;47.824;16.228;2024-02-04T10:32:42;0.07;;;0.07;;
18653;SDS011;9456;47.824;16.228;2024-02-04T10:35:10;0.60;;;0.60;;
18653;SDS011;9456;47.824;16.228;2024-02-04T10:37:38;0.20;;;0.20;;
18653;SDS011;9456;47.824;16.228;2024-02-04T10:40:08;0.30;;;0.30;;
18653;SDS011;9456;47.824;16.228;2024-02-04T10:42:36;0.20;;;0.20;;
18653;SDS011;9456;47.824;16.228;2024-02-04T10:45:04;0.67;;;0.67;;
18653;SDS011;9456;47.824;16.228;2024-02-04T10:47:33;0.20;;;0.20;;
18653;SDS011;9456;47.824;16.228;2024-02-04T10:50:02;0.10;;;0.10;;
18653;SDS011;9456;47.824;16.228;2024-02-04T10:52:30;0.10;;;0.10;;
18653;SDS011;9456;47.824;16.228;2024-02-04T10:54:57;0.10;;;0.10;;
18653;SDS011;9456;47.824;16.228;2024-02-04T10:57:26;0.30;;;0.20;;
18653;SDS011;9456;47.824;16.228;2024-02-04T10:59:57;1.40;;;0.40;;
18653;SDS011;9456;47.824;16.228;2024-02-04T11:02:25;0.10;;;0.10;;
18653;SDS011;9456;47.824;16.228;2024-02-04T11:04:56;0.10;;;0.10;;
18653;SDS011;9456;47.824;16.228;2024-02-04T11:07:26;0.17;;;0.17;;
18653;SDS011;9456;47.824;16.228;2024-02-04T11:09:57;0.20;;;0.20;;
18653;SDS011;9456;47.824;16.228;2024-02-04T11:12:25;0.30;;;0.30;;
18653;SDS011;9456;47.824;16.228;2024-02-04T11:14:54;0.10;;;0.10;;
18653;SDS011;9456;47.824;16.228;2024-02-04T11:17:26;0.50;;;0.23;;
18653;SDS011;9456;47.824;16.228;2024-02-04T11:19:56;0.93;;;0.17;;
18653;SDS011;9456;47.824;16.228;2024-02-04T11:22:46;0.20;;;0.20;;
18653;SDS011;9456;47.824;16.228;2024-02-04T11:25:24;0.23;;;0.20;;
18653;SDS011;9456;47.824;16.228;2024-02-04T11:27:49;0.70;;;0.10;;
18653;SDS011;9456;47.824;16.228;2024-02-04T11:30:18;0.10;;;0.10;;
18653;SDS011;9456;47.824;16.228;2024-02-04T11:32:46;0.10;;;0.10;;
18653;SDS011;9456;47.824;16.228;2024-02-04T11:35:14;0.30;;;0.30;;
18653;SDS011;9456;47.824;16.228;2024-02-04T11:37:42;0.03;;;0.03;;
18653;SDS011;9456;47.824;16.228;2024-02-04T11:40:13;0.00;;;0.00;;
18653;SDS011;9456;47.824;16.228;2024-02-04T11:42:38;0.23;;;0.23;;
18653;SDS011;9456;47.824;16.228;2024-02-04T11:45:13;0.10;;;0.10;;
18653;SDS011;9456;47.824;16.228;2024-02-04T11:47:41;0.17;;;0.17;;
18653;SDS011;9456;47.824;16.228;2024-02-04T11:50:09;0.10;;;0.10;;
18653;SDS011;9456;47.824;16.228;2024-02-04T11:52:37;0.10;;;0.10;;
18653;SDS011;9456;47.824;16.228;2024-02-04T11:55:12;0.10;;;0.10;;
18653;SDS011;9456;47.824;16.228;2024-02-04T11:57:34;0.10;;;0.10;;
18653;SDS011;9456;47.824;16.228;2024-02-04T12:00:04;0.00;;;0.00;;
18653;SDS011;9456;47.824;16.228;2024-02-04T12:02:31;0.10;;;0.10;;
18653;SDS011;9456;47.824;16.228;2024-02-04T12:04:59;0.20;;;0.20;;
18653;SDS011;9456;47.824;16.228;2024-02-04T12:07:27;0.10;;;0.10;;
18653;SDS011;9456;47.824;16.228;2024-02-04T12:09:55;0.10;;;0.10;;
18653;SDS011;9456;47.824;16.228;2024-02-04T12:12:23;0.17;;;0.17;;
18653;SDS011;9456;47.824;16.228;2024-02-04T12:14:51;0.10;;;0.10;;
18653;SDS011;9456;47.824;16.228;2024-02-04T12:17:19;0.20;;;0.20;;
18653;SDS011;9456;47.824;16.228;2024-02-04T12:19:47;0.20;;;0.20;;
18653;SDS011;9456;47.824;16.228;2024-02-04T12:22:15;0.20;;;0.20;;
18653;SDS011;9456;47.824;16.228;2024-02-04T12:24:44;0.10;;;0.00;;
18653;SDS011;9456;47.824;16.228;2024-02-04T12:27:12;0.53;;;0.20;;
18653;SDS011;9456;47.824;16.228;2024-02-04T12:29:40;0.20;;;0.10;;
18653;SDS011;9456;47.824;16.228;2024-02-04T12:32:08;0.00;;;0.00;;
18653;SDS011;9456;47.824;16.228;2024-02-04T12:34:36;0.10;;;0.10;;
18653;SDS011;9456;47.824;16.228;2024-02-04T12:37:04;0.10;;;0.10;;
18653;SDS011;9456;47.824;16.228;2024-02-04T12:39:32;0.10;;;0.10;;
18653;SDS011;9456;47.824;16.228;2024-02-04T12:42:00;0.10;;;0.10;;
18653;SDS011;9456;47.824;16.228;2024-02-04T12:44:28;0.10;;;0.10;;
18653;SDS011;9456;47.824;16.228;2024-02-04T12:46:57;0.10;;;0.10;;
18653;SDS011;9456;47.824;16.228;2024-02-04T12:49:25;0.10;;;0.10;;
18653;SDS011;9456;47.824;16.228;2024-02-04T12:52:03;0.10;;;0.10;;
18653;SDS011;9456;47.824;16.228;2024-02-04T12:54:21;0.20;;;0.20;;
18653;SDS011;9456;47.824;16.228;2024-02-04T12:56:49;0.10;;;0.10;;
18653;SDS011;9456;47.824;16.228;2024-02-04T12:59:26;0.10;;;0.10;;
18653;SDS011;9456;47.824;16.228;2024-02-04T13:01:55;0.20;;;0.20;;
18653;SDS011;9456;47.824;16.228;2024-02-04T13:04:23;0.13;;;0.13;;
18653;SDS011;9456;47.824;16.228;2024-02-04T13:06:51;0.10;;;0.10;;
18653;SDS011;9456;47.824;16.228;2024-02-04T13:09:19;0.20;;;0.20;;
18653;SDS011;9456;47.824;16.228;2024-02-04T13:11:47;0.10;;;0.10;;
18653;SDS011;9456;47.824;16.228;2024-02-04T13:14:15;0.10;;;0.10;;
18653;SDS011;9456;47.824;16.228;2024-02-04T13:16:43;0.10;;;0.10;;
18653;SDS011;9456;47.824;16.228;2024-02-04T13:19:11;0.13;;;0.13;;
18653;SDS011;9456;47.824;16.228;2024-02-04T13:21:39;0.10;;;0.10;;
18653;SDS011;9456;47.824;16.228;2024-02-04T13:24:07;0.10;;;0.10;;
18653;SDS011;9456;47.824;16.228;2024-02-04T13:26:35;0.20;;;0.20;;
18653;SDS011;9456;47.824;16.228;2024-02-04T13:29:03;0.10;;;0.10;;
18653;SDS011;9456;47.824;16.228;2024-02-04T13:31:31;0.20;;;0.20;;
18653;SDS011;9456;47.824;16.228;2024-02-04T13:33:59;0.47;;;0.40;;
18653;SDS011;9456;47.824;16.228;2024-02-04T13:36:28;0.20;;;0.20;;
18653;SDS011;9456;47.824;16.228;2024-02-04T13:38:56;0.20;;;0.20;;
18653;SDS011;9456;47.824;16.228;2024-02-04T13:41:24;0.17;;;0.17;;
18653;SDS011;9456;47.824;16.228;2024-02-04T13:43:52;0.20;;;0.10;;
18653;SDS011;9456;47.824;16.228;2024-02-04T13:46:20;0.10;;;0.10;;
18653;SDS011;9456;47.824;16.228;2024-02-04T13:48:48;0.10;;;0.10;;
18653;SDS011;9456;47.824;16.228;2024-02-04T13:51:16;0.17;;;0.17;;
18653;SDS011;9456;47.824;16.228;2024-02-04T13:53:44;0.20;;;0.20;;
18653;SDS011;9456;47.824;16.228;2024-02-04T13:56:12;0.20;;;0.20;;
18653;SDS011;9456;47.824;16.228;2024-02-04T13:58:40;0.00;;;0.00;;
18653;SDS011;9456;47.824;16.228;2024-02-04T14:01:08;0.30;;;0.30;;
18653;SDS011;9456;47.824;16.228;2024-02-04T14:03:36;1.03;;;0.10;;
18653;SDS011;9456;47.824;16.228;2024-02-04T14:06:05;0.10;;;0.10;;
18653;SDS011;9456;47.824;16.228;2024-02-04T14:08:33;0.10;;;0.10;;
18653;SDS011;9456;47.824;16.228;2024-02-04T14:11:01;0.10;;;0.10;;
18653;SDS011;9456;47.824;16.228;2024-02-04T14:13:29;0.13;;;0.13;;
18653;SDS011;9456;47.824;16.228;2024-02-04T14:15:57;0.10;;;0.10;;
18653;SDS011;9456;47.824;16.228;2024-02-04T14:18:25;0.30;;;0.30;;
18653;SDS011;9456;47.824;16.228;2024-02-04T14:20:53;0.10;;;0.10;;
18653;SDS011;9456;47.824;16.228;2024-02-04T14:23:21;0.27;;;0.27;;
18653;SDS011;9456;47.824;16.228;2024-02-04T14:25:49;0.20;;;0.20;;
18653;SDS011;9456;47.824;16.228;2024-02-04T14:28:17;0.20;;;0.20;;
18653;SDS011;9456;47.824;16.228;2024-02-04T14:30:45;1.27;;;0.37;;
18653;SDS011;9456;47.824;16.228;2024-02-04T14:33:13;0.20;;;0.20;;
18653;SDS011;9456;47.824;16.228;2024-02-04T14:35:41;0.20;;;0.20;;
18653;SDS011;9456;47.824;16.228;2024-02-04T14:38:09;0.10;;;0.10;;
18653;SDS011;9456;47.824;16.228;2024-02-04T14:40:40;0.30;;;0.30;;
18653;SDS011;9456;47.824;16.228;2024-02-04T14:43:08;0.20;;;0.20;;
18653;SDS011;9456;47.824;16.228;2024-02-04T14:45:36;0.20;;;0.20;;
18653;SDS011;9456;47.824;16.228;2024-02-04T14:48:05;0.10;;;0.10;;
18653;SDS011;9456;47.824;16.228;2024-02-04T14:50:33;0.23;;;0.23;;
18653;SDS011;9456;47.824;16.228;2024-02-04T14:53:01;0.17;;;0.17;;
18653;SDS011;9456;47.824;16.228;2024-02-04T14:55:29;0.20;;;0.20;;
18653;SDS011;9456;47.824;16.228;2024-02-04T14:57:57;0.30;;;0.30;;